createdAt,value
2022-08-26T00:01:48.979Z,69.31
2022-08-26T00:04:32.447Z,68.98
2022-08-26T00:07:15.539Z,68.96
2022-08-26T00:09:59.963Z,68.92
2022-08-26T00:12:43.389Z,69.36
2022-08-26T00:15:26.773Z,68.96
2022-08-26T00:18:12.402Z,69.17
2022-08-26T00:21:06.296Z,69.11
2022-08-26T00:23:49.764Z,69.03
2022-08-26T00:26:34.946Z,69.06
2022-08-26T00:29:18.418Z,69.13
2022-08-26T00:32:02.708Z,68.87
2022-08-26T00:34:47.217Z,68.94
2022-08-26T00:37:30.529Z,68.98
2022-08-26T00:40:16.485Z,69.21
2022-08-26T00:43:02.399Z,69.31
2022-08-26T00:45:56.545Z,69.19
2022-08-26T00:48:42.941Z,69.25
2022-08-26T00:51:29.994Z,69.33
2022-08-26T00:54:14.139Z,69.67
2022-08-26T00:57:00.316Z,69.88
2022-08-26T00:59:46.954Z,69.68
2022-08-26T01:02:30.922Z,70.10
2022-08-26T01:05:14.134Z,70.08
2022-08-26T01:07:57.265Z,69.92
2022-08-26T01:10:40.765Z,70.17
2022-08-26T01:13:24.756Z,70.41
2022-08-26T01:16:13.815Z,70.27
2022-08-26T01:19:02.201Z,70.29
2022-08-26T01:21:51.138Z,70.34
2022-08-26T01:24:36.645Z,70.58
2022-08-26T01:27:22.157Z,70.32
2022-08-26T01:30:07.678Z,70.70
2022-08-26T01:32:51.592Z,70.49
2022-08-26T01:35:34.777Z,70.92
2022-08-26T01:38:18.977Z,70.77
2022-08-26T01:41:04.433Z,71.25
2022-08-26T01:44:00.962Z,71.25
2022-08-26T01:46:45.678Z,71.13
2022-08-26T01:49:30.147Z,71.50
2022-08-26T01:52:22.006Z,71.17
2022-08-26T01:55:05.958Z,71.35
2022-08-26T01:57:56.218Z,71.66
2022-08-26T02:00:39.677Z,71.46
2022-08-26T02:03:22.841Z,71.77
2022-08-26T02:06:09.227Z,72.08
2022-08-26T02:08:56.399Z,72.02
2022-08-26T02:11:39.935Z,72.40
2022-08-26T02:14:29.149Z,72.02
2022-08-26T02:17:12.314Z,72.33
2022-08-26T02:19:56.730Z,72.25
2022-08-26T02:22:41.352Z,72.72
2022-08-26T02:25:33.275Z,72.48
2022-08-26T02:28:17.675Z,72.57
2022-08-26T02:31:04.390Z,72.54
2022-08-26T02:33:47.727Z,72.38
2022-08-26T02:36:30.796Z,72.70
2022-08-26T02:39:18.011Z,72.89
2022-08-26T02:42:06.509Z,72.52
2022-08-26T02:44:49.741Z,72.91
2022-08-26T02:47:35.096Z,72.52
2022-08-26T02:50:18.325Z,72.84
2022-08-26T02:53:01.384Z,73.11
2022-08-26T02:55:45.558Z,73.28
2022-08-26T02:58:31.746Z,73.21
2022-08-26T03:01:22.062Z,73.43
2022-08-26T03:04:09.573Z,73.21
2022-08-26T03:06:53.491Z,73.26
2022-08-26T03:09:38.622Z,73.55
2022-08-26T03:12:23.176Z,73.54
2022-08-26T03:15:15.927Z,73.12
2022-08-26T03:18:00.945Z,73.11
2022-08-26T03:20:45.545Z,73.52
2022-08-26T03:23:28.584Z,73.54
2022-08-26T03:26:14.871Z,73.14
2022-08-26T03:29:15.918Z,73.59
2022-08-26T03:32:01.589Z,73.50
2022-08-26T03:34:46.352Z,73.46
2022-08-26T03:37:31.405Z,73.84
2022-08-26T03:40:14.619Z,74.04
2022-08-26T03:42:57.705Z,73.73
2022-08-26T03:45:40.954Z,73.95
2022-08-26T03:48:25.677Z,74.09
2022-08-26T03:51:13.207Z,74.07
2022-08-26T03:53:57.694Z,73.71
2022-08-26T03:56:40.843Z,74.38
2022-08-26T03:59:24.947Z,74.23
2022-08-26T04:02:08.616Z,73.93
2022-08-26T04:04:54.832Z,74.47
2022-08-26T04:07:37.837Z,74.46
2022-08-26T04:10:28.671Z,74.17
2022-08-26T04:13:12.877Z,74.09
2022-08-26T04:15:56.235Z,74.68
2022-08-26T04:18:46.459Z,74.25
2022-08-26T04:21:30.295Z,74.53
2022-08-26T04:24:16.617Z,74.67
2022-08-26T04:27:03.434Z,74.82
2022-08-26T04:29:47.774Z,74.85
2022-08-26T04:32:31.355Z,74.63
2022-08-26T04:35:14.424Z,74.57
2022-08-26T04:37:58.903Z,74.66
2022-08-26T04:40:46.646Z,74.74
2022-08-26T04:43:31.566Z,75.04
2022-08-26T04:46:18.826Z,74.85
2022-08-26T04:49:02.109Z,75.31
2022-08-26T04:51:45.314Z,75.15
2022-08-26T04:54:28.392Z,74.92
2022-08-26T04:57:11.507Z,75.14
2022-08-26T04:59:55.954Z,75.01
2022-08-26T05:02:39.450Z,75.01
2022-08-26T05:05:22.494Z,74.64
2022-08-26T05:08:05.572Z,74.59
2022-08-26T05:10:50.681Z,74.52
2022-08-26T05:13:34.870Z,74.68
2022-08-26T05:16:19.468Z,74.37
2022-08-26T05:19:03.671Z,74.21
2022-08-26T05:21:49.260Z,73.90
2022-08-26T05:24:32.446Z,73.79
2022-08-26T05:27:16.479Z,73.94
2022-08-26T05:30:01.136Z,74.02
2022-08-26T05:32:45.599Z,73.77
2022-08-26T05:35:31.968Z,73.81
2022-08-26T05:38:17.382Z,73.57
2022-08-26T05:41:00.415Z,73.61
2022-08-26T05:43:43.726Z,73.84
2022-08-26T05:46:27.691Z,73.58
2022-08-26T05:49:13.110Z,73.96
2022-08-26T05:51:56.265Z,73.46
2022-08-26T05:54:39.920Z,73.73
2022-08-26T05:57:23.246Z,73.80
2022-08-26T06:00:07.357Z,73.97
2022-08-26T06:02:55.289Z,73.80
2022-08-26T06:05:41.117Z,73.69
2022-08-26T06:08:24.451Z,73.18
2022-08-26T06:11:17.160Z,72.85
2022-08-26T06:14:05.353Z,73.01
2022-08-26T06:16:48.496Z,72.73
2022-08-26T06:19:32.697Z,72.87
2022-08-26T06:22:36.545Z,73.13
2022-08-26T06:25:36.121Z,72.84
2022-08-26T06:28:20.437Z,72.39
2022-08-26T06:31:04.513Z,72.62
2022-08-26T06:33:47.680Z,72.36
2022-08-26T06:36:32.362Z,72.33
2022-08-26T06:39:18.942Z,71.88
2022-08-26T06:42:06.272Z,71.40
2022-08-26T06:44:50.307Z,71.17
2022-08-26T06:47:34.155Z,70.92
2022-08-26T06:50:17.394Z,70.61
2022-08-26T06:53:01.451Z,70.26
2022-08-26T06:55:47.261Z,69.88
2022-08-26T06:58:35.665Z,69.80
2022-08-26T07:01:22.038Z,69.70
2022-08-26T07:04:10.032Z,69.65
2022-08-26T07:06:54.359Z,69.29
2022-08-26T07:09:37.478Z,69.06
2022-08-26T07:12:22.103Z,68.74
2022-08-26T07:15:05.986Z,68.44
2022-08-26T07:17:50.682Z,68.27
2022-08-26T07:20:33.723Z,67.63
2022-08-26T07:23:17.327Z,66.80
2022-08-26T07:26:00.937Z,66.48
2022-08-26T07:28:46.788Z,66.54
2022-08-26T07:31:39.237Z,66.12
2022-08-26T07:34:24.022Z,65.74
2022-08-26T07:37:08.811Z,65.54
2022-08-26T07:39:52.263Z,65.71
2022-08-26T07:42:35.416Z,65.29
2022-08-26T07:45:20.087Z,64.79
2022-08-26T07:48:04.274Z,64.62
2022-08-26T07:50:49.169Z,64.20
2022-08-26T07:53:35.487Z,63.92
2022-08-26T07:56:18.929Z,63.72
2022-08-26T07:59:02.290Z,63.65
2022-08-26T08:01:53.128Z,63.00
2022-08-26T08:04:36.252Z,62.14
2022-08-26T08:07:19.375Z,62.68
2022-08-26T08:10:04.604Z,62.42
2022-08-26T08:12:51.305Z,62.22
2022-08-26T08:15:35.639Z,62.08
2022-08-26T08:18:20.765Z,61.85
2022-08-26T08:21:21.298Z,61.57
2022-08-26T08:24:05.675Z,61.67
2022-08-26T08:26:48.774Z,61.64
2022-08-26T08:29:31.813Z,61.76
2022-08-26T08:32:15.802Z,61.30
2022-08-26T08:35:00.785Z,60.84
2022-08-26T08:37:44.004Z,60.69
2022-08-26T08:40:29.206Z,60.73
2022-08-26T08:43:14.605Z,60.44
2022-08-26T08:46:04.377Z,59.88
2022-08-26T08:48:52.142Z,59.73
2022-08-26T08:51:48.067Z,59.42
2022-08-26T08:54:32.658Z,59.57
2022-08-26T08:57:24.510Z,59.46
2022-08-26T09:00:12.318Z,59.25
2022-08-26T09:03:00.366Z,59.14
2022-08-26T09:05:48.766Z,59.15
2022-08-26T09:08:36.973Z,58.80
2022-08-26T09:11:21.418Z,58.23
2022-08-26T09:14:06.022Z,57.70
2022-08-26T09:16:52.757Z,57.83
2022-08-26T09:19:41.231Z,57.52
2022-08-26T09:22:31.955Z,56.97
2022-08-26T09:25:17.116Z,56.93
2022-08-26T09:28:01.755Z,57.16
2022-08-26T09:30:54.624Z,57.21
2022-08-26T09:33:39.310Z,56.91
2022-08-26T09:36:26.303Z,56.04
2022-08-26T09:39:27.755Z,54.84
2022-08-26T09:42:16.808Z,54.70
2022-08-26T09:45:01.934Z,54.57
2022-08-26T09:47:56.041Z,54.47
2022-08-26T09:50:41.351Z,54.33
2022-08-26T09:53:31.015Z,54.44
2022-08-26T09:56:18.490Z,53.86
2022-08-26T09:59:03.894Z,53.34
2022-08-26T10:01:49.662Z,53.71
2022-08-26T10:04:32.878Z,52.94
2022-08-26T10:07:35.515Z,53.46
2022-08-26T10:10:24.566Z,53.04
2022-08-26T10:13:13.397Z,53.00
2022-08-26T10:16:02.842Z,52.92
2022-08-26T10:19:00.156Z,53.25
2022-08-26T10:21:46.962Z,53.19
2022-08-26T10:24:40.634Z,54.00
2022-08-26T10:27:33.012Z,54.51
2022-08-26T10:30:20.677Z,55.06
2022-08-26T10:33:08.858Z,56.28
2022-08-26T10:35:55.239Z,56.48
2022-08-26T10:38:41.698Z,55.82
2022-08-26T10:41:33.148Z,55.39
2022-08-26T10:44:19.219Z,55.26
2022-08-26T10:47:15.971Z,55.70
2022-08-26T10:50:03.410Z,56.01
2022-08-26T10:52:55.783Z,55.99
2022-08-26T10:55:55.972Z,56.46
2022-08-26T10:58:55.830Z,56.23
2022-08-26T11:01:44.180Z,56.45
2022-08-26T11:04:52.369Z,57.30
2022-08-26T11:07:41.835Z,53.45
2022-08-26T11:11:04.401Z,53.28
2022-08-26T11:14:01.707Z,54.10
2022-08-26T11:16:46.609Z,54.73
2022-08-26T11:20:09.172Z,55.08
2022-08-26T11:23:36.322Z,54.95
2022-08-26T11:26:35.669Z,55.41
2022-08-26T11:29:59.478Z,56.24
2022-08-26T11:32:51.999Z,56.49
2022-08-26T11:35:52.157Z,57.40
2022-08-26T11:38:35.501Z,57.74
2022-08-26T11:41:21.937Z,57.97
2022-08-26T11:44:09.220Z,58.67
2022-08-26T11:47:00.670Z,59.46
2022-08-26T11:49:43.698Z,60.73
2022-08-26T11:52:26.726Z,61.67
2022-08-26T11:55:12.150Z,61.85
2022-08-26T11:58:00.851Z,62.79
2022-08-26T12:00:52.388Z,63.85
2022-08-26T12:03:41.919Z,64.20
2022-08-26T12:06:29.179Z,65.35
2022-08-26T12:09:21.349Z,65.60
2022-08-26T12:12:13.152Z,66.99
2022-08-26T12:15:13.748Z,67.53
2022-08-26T12:17:56.818Z,67.44
2022-08-26T12:20:51.318Z,68.55
2022-08-26T12:23:43.359Z,69.00
2022-08-26T12:26:29.164Z,70.67
2022-08-26T12:29:27.154Z,71.73
2022-08-26T12:32:13.503Z,71.87
2022-08-26T12:34:56.934Z,73.42
2022-08-26T12:37:45.553Z,73.32
2022-08-26T12:40:35.811Z,73.67
2022-08-26T12:43:38.570Z,74.35
2022-08-26T12:46:28.622Z,73.40
2022-08-26T12:49:11.708Z,74.89
2022-08-26T12:51:54.726Z,76.92
2022-08-26T12:54:57.186Z,76.00
2022-08-26T12:57:40.290Z,76.10
2022-08-26T13:00:33.147Z,76.28
2022-08-26T13:03:44.792Z,76.79
2022-08-26T13:06:31.193Z,76.12
2022-08-26T13:09:32.089Z,76.18
2022-08-26T13:12:26.051Z,75.45
2022-08-26T13:15:09.740Z,75.96
2022-08-26T13:17:53.141Z,75.76
2022-08-26T13:20:44.118Z,75.99
2022-08-26T13:23:27.179Z,76.59
2022-08-26T13:26:10.206Z,76.77
2022-08-26T13:29:01.731Z,77.91
2022-08-26T13:31:46.872Z,77.99
2022-08-26T13:34:32.422Z,77.79
2022-08-26T13:37:15.446Z,78.13
2022-08-26T13:39:59.076Z,77.89
2022-08-26T13:42:49.399Z,77.32
2022-08-26T13:45:34.405Z,77.59
2022-08-26T13:48:21.565Z,77.77
2022-08-26T13:51:08.146Z,78.16
2022-08-26T13:53:52.986Z,77.91
2022-08-26T13:56:37.456Z,77.96
2022-08-26T13:59:20.550Z,78.45
2022-08-26T14:02:05.047Z,78.32
2022-08-26T14:04:48.126Z,78.89
2022-08-26T14:07:31.158Z,79.39
2022-08-26T14:10:14.140Z,79.60
2022-08-26T14:12:57.554Z,80.26
2022-08-26T14:15:40.778Z,80.56
2022-08-26T14:18:30.468Z,80.66
2022-08-26T14:21:15.125Z,80.41
2022-08-26T14:24:00.924Z,80.35
2022-08-26T14:26:44.374Z,80.45
2022-08-26T14:29:27.641Z,80.72
2022-08-26T14:32:15.427Z,81.29
2022-08-26T14:35:00.096Z,81.45
2022-08-26T14:37:43.228Z,82.58
2022-08-26T14:40:29.997Z,81.99
2022-08-26T14:43:15.218Z,82.17
2022-08-26T14:45:58.592Z,81.93
2022-08-26T14:48:41.553Z,82.40
2022-08-26T14:51:26.096Z,82.46
2022-08-26T14:54:16.244Z,82.57
2022-08-26T14:57:02.267Z,82.99
2022-08-26T14:59:50.091Z,82.38
2022-08-26T15:02:34.104Z,82.34
2022-08-26T15:05:17.330Z,82.19
2022-08-26T15:08:02.646Z,82.14
2022-08-26T15:10:45.737Z,82.42
2022-08-26T15:13:28.804Z,82.05
2022-08-26T15:16:11.901Z,81.90
2022-08-26T15:18:54.988Z,81.55
2022-08-26T15:21:38.284Z,80.83
2022-08-26T15:24:25.522Z,80.88
2022-08-26T15:27:09.046Z,81.52
2022-08-26T15:29:52.802Z,81.99
2022-08-26T15:32:36.144Z,81.69
2022-08-26T15:35:19.220Z,81.54
2022-08-26T15:38:02.835Z,81.27
2022-08-26T15:40:47.375Z,81.69
2022-08-26T15:43:30.500Z,81.09
2022-08-26T15:46:13.931Z,81.34
2022-08-26T15:48:57.054Z,81.10
2022-08-26T15:51:45.635Z,81.00
2022-08-26T15:54:29.591Z,80.50
2022-08-26T15:57:16.423Z,80.47
2022-08-26T16:00:01.899Z,80.18
2022-08-26T16:02:54.741Z,79.50
2022-08-26T16:05:39.082Z,79.41
2022-08-26T16:08:22.400Z,78.25
2022-08-26T16:11:05.938Z,78.21
2022-08-26T16:13:50.606Z,78.68
2022-08-26T16:16:33.630Z,78.72
2022-08-26T16:19:16.683Z,78.55
2022-08-26T16:21:59.711Z,78.67
2022-08-26T16:24:42.799Z,79.19
2022-08-26T16:27:25.814Z,78.98
2022-08-26T16:30:11.898Z,79.58
2022-08-26T16:32:55.663Z,79.25
2022-08-26T16:35:39.548Z,79.04
2022-08-26T16:38:22.614Z,78.84
2022-08-26T16:41:07.111Z,79.46
2022-08-26T16:43:50.474Z,79.67
2022-08-26T16:46:35.824Z,80.10
2022-08-26T16:49:19.190Z,80.47
2022-08-26T16:52:02.327Z,81.20
2022-08-26T16:54:45.433Z,80.95
2022-08-26T16:57:28.482Z,81.20
2022-08-26T17:00:17.303Z,80.88
2022-08-26T17:03:02.341Z,80.85
2022-08-26T17:05:45.514Z,81.42
2022-08-26T17:08:29.050Z,81.66
2022-08-26T17:11:12.614Z,81.52
2022-08-26T17:13:55.705Z,81.12
2022-08-26T17:16:39.035Z,80.85
2022-08-26T17:19:23.656Z,81.00
2022-08-26T17:22:08.276Z,81.59
2022-08-26T17:24:51.342Z,81.50
2022-08-26T17:27:34.342Z,80.96
2022-08-26T17:30:18.451Z,81.08
2022-08-26T17:33:01.466Z,80.74
2022-08-26T17:35:56.470Z,80.68
2022-08-26T17:38:39.772Z,80.25
2022-08-26T17:41:22.840Z,80.16
2022-08-26T17:44:06.756Z,79.77
2022-08-26T17:46:49.915Z,80.03
2022-08-26T17:49:33.109Z,79.70
2022-08-26T17:52:17.545Z,79.73
2022-08-26T17:55:00.560Z,79.73
2022-08-26T17:57:43.905Z,79.88
2022-08-26T18:00:36.660Z,80.53
2022-08-26T18:03:20.296Z,80.51
2022-08-26T18:06:04.086Z,80.58
2022-08-26T18:08:48.675Z,80.88
2022-08-26T18:11:32.824Z,80.53
2022-08-26T18:14:15.969Z,80.34
2022-08-26T18:16:59.022Z,80.28
2022-08-26T18:22:26.463Z,80.60
2022-08-26T18:25:12.687Z,80.40
2022-08-26T18:27:55.761Z,80.88
2022-08-26T18:30:39.301Z,80.93
2022-08-26T18:33:22.387Z,81.60
2022-08-26T18:36:06.239Z,81.75
2022-08-26T18:38:50.726Z,81.74
2022-08-26T18:41:43.412Z,82.39
2022-08-26T18:44:26.487Z,82.92
2022-08-26T18:47:09.584Z,83.13
2022-08-26T18:49:52.733Z,83.32
2022-08-26T18:52:35.846Z,83.73
2022-08-26T18:55:18.911Z,83.90
2022-08-26T18:58:03.404Z,84.00
2022-08-26T19:00:46.576Z,84.33
2022-08-26T19:03:29.667Z,84.21
2022-08-26T19:06:15.376Z,84.55
2022-08-26T19:08:58.530Z,84.32
2022-08-26T19:11:43.017Z,84.34
2022-08-26T19:14:27.500Z,85.76
2022-08-26T19:17:11.785Z,84.81
2022-08-26T19:19:54.919Z,84.72
2022-08-26T19:22:37.962Z,84.55
2022-08-26T19:25:20.985Z,84.53
2022-08-26T19:28:04.272Z,84.79
2022-08-26T19:30:53.387Z,85.00
2022-08-26T19:33:37.216Z,85.42
2022-08-26T19:36:22.840Z,86.27
2022-08-26T19:39:07.731Z,85.76
2022-08-26T19:41:51.782Z,85.65
2022-08-26T19:44:52.330Z,85.58
2022-08-26T19:47:37.069Z,85.39
2022-08-26T19:50:19.938Z,85.96
2022-08-26T19:53:04.118Z,85.91
2022-08-26T19:55:47.170Z,86.06
2022-08-26T19:58:30.189Z,86.37
2022-08-26T20:01:14.663Z,87.10
2022-08-26T20:03:59.075Z,87.36
2022-08-26T20:06:42.171Z,88.09
2022-08-26T20:09:25.247Z,88.49
2022-08-26T20:12:09.371Z,88.32
2022-08-26T20:14:52.444Z,87.73
2022-08-26T20:17:35.737Z,87.54
2022-08-26T20:20:37.877Z,87.27
2022-08-26T20:23:21.076Z,86.88
2022-08-26T20:26:04.539Z,86.63
2022-08-26T20:28:47.558Z,86.98
2022-08-26T20:31:35.128Z,86.09
2022-08-26T20:34:19.507Z,86.28
2022-08-26T20:37:04.667Z,86.38
2022-08-26T20:39:48.633Z,86.80
2022-08-26T20:42:31.966Z,86.19
2022-08-26T20:45:15.009Z,85.91
2022-08-26T20:47:58.122Z,85.50
2022-08-26T20:50:41.275Z,85.52
2022-08-26T20:53:25.959Z,85.64
2022-08-26T20:56:10.456Z,85.26
2022-08-26T20:58:55.461Z,84.46
2022-08-26T21:01:42.083Z,84.87
2022-08-26T21:04:27.525Z,85.66
2022-08-26T21:07:10.634Z,86.01
2022-08-26T21:09:55.021Z,85.86
2022-08-26T21:12:38.403Z,85.86
2022-08-26T21:15:22.164Z,86.12
2022-08-26T21:18:05.960Z,86.28
2022-08-26T21:20:49.028Z,86.57
2022-08-26T21:23:32.523Z,86.54
2022-08-26T21:26:18.005Z,86.93
2022-08-26T21:29:02.478Z,86.85
2022-08-26T21:31:46.682Z,86.47
2022-08-26T21:34:30.067Z,86.93
2022-08-26T21:37:15.381Z,86.49
2022-08-26T21:40:01.941Z,86.47
2022-08-26T21:42:46.531Z,85.96
2022-08-26T21:45:31.037Z,86.17
2022-08-26T21:48:14.132Z,85.89
2022-08-26T21:50:58.090Z,86.10
2022-08-26T21:53:41.698Z,85.94
2022-08-26T21:56:26.882Z,86.10
2022-08-26T21:59:11.994Z,86.27
2022-08-26T22:01:55.352Z,86.07
2022-08-26T22:04:38.421Z,86.19
2022-08-26T22:07:21.435Z,86.70
2022-08-26T22:10:05.039Z,86.36
2022-08-26T22:12:48.157Z,85.94
2022-08-26T22:15:35.387Z,86.17
2022-08-26T22:18:21.429Z,85.98
2022-08-26T22:21:06.667Z,85.91
2022-08-26T22:23:49.744Z,85.54
2022-08-26T22:26:34.178Z,85.45
2022-08-26T22:29:17.389Z,85.85
2022-08-26T22:32:02.514Z,86.13
2022-08-26T22:34:45.800Z,86.09
2022-08-26T22:37:28.835Z,85.64
2022-08-26T22:40:13.205Z,85.50
2022-08-26T22:42:58.804Z,85.67
2022-08-26T22:45:45.806Z,86.28
2022-08-26T22:48:30.240Z,85.97
2022-08-26T22:51:13.689Z,85.94
2022-08-26T22:53:56.743Z,86.60
2022-08-26T22:56:40.826Z,86.48
2022-08-26T22:59:24.542Z,86.38
2022-08-26T23:02:07.901Z,85.90
2022-08-26T23:04:56.005Z,87.06
2022-08-26T23:07:39.230Z,86.63
2022-08-26T23:10:22.596Z,86.30
2022-08-26T23:13:08.153Z,86.54
2022-08-26T23:16:00.149Z,86.60
2022-08-26T23:18:43.218Z,86.16
2022-08-26T23:21:27.648Z,86.10
2022-08-26T23:24:12.111Z,86.49
2022-08-26T23:26:55.147Z,86.69
2022-08-26T23:29:39.759Z,86.73
2022-08-26T23:32:23.125Z,86.57
2022-08-26T23:35:05.994Z,86.50
2022-08-26T23:37:52.973Z,86.13
2022-08-26T23:40:37.499Z,86.41
2022-08-26T23:43:20.583Z,86.14
2022-08-26T23:46:03.713Z,85.67
2022-08-26T23:48:47.012Z,85.93
2022-08-26T23:51:48.239Z,85.61
2022-08-26T23:54:33.185Z,86.15
2022-08-26T23:57:17.367Z,86.07
